JBU1399 KFLL-MWCR
Flight info
| Callsign | JBU1399 |
|---|---|
| Flight time | 1h 12m |
| Altitude | 33000 |
| Route | MAYNR3 FUNDI UM335 ALVEK UM328 UCL UG448 ATUVI GORAN3 |
| Aircraft | A320/M-SDE3FGHIRWY/LB1 |
Departure
| Time | 2026-05-04 00:10 |
|---|---|
| Airport | Fort Lauderdale Hollywood International Airport (KFLL) |
Arrival
| Time | 2026-05-04 01:22 |
|---|---|
| Airport | Owen Roberts International Airport (MWCR) |
| Time | Latitude | Longitude | Altitude | Speed | Heading |
|---|---|---|---|---|---|
| 2026-05-03 22:47 | 26.07147 | -80.14688 | 16 ft | 0 kts | 177° |
| 2026-05-03 22:48 | 26.07058 | -80.14707 | 16 ft | 0 kts | 58° |
| 2026-05-03 22:49 | 26.07060 | -80.14706 | 18 ft | 0 kts | 56° |
| 2026-05-03 23:01 | 26.07048 | -80.14726 | 18 ft | 4 kts | 56° |
| 2026-05-03 23:01 | 26.07036 | -80.14745 | 17 ft | 4 kts | 47° |
| 2026-05-03 23:01 | 26.07017 | -80.14760 | 16 ft | 4 kts | 35° |
| 2026-05-03 23:01 | 26.07008 | -80.14773 | 16 ft | 4 kts | 126° |
| 2026-05-03 23:02 | 26.07024 | -80.14792 | 16 ft | 1 kts | 136° |
| 2026-05-03 23:02 | 26.07025 | -80.14793 | 16 ft | 0 kts | 136° |
| 2026-05-03 23:05 | 26.07021 | -80.14789 | 16 ft | 5 kts | 136° |
| 2026-05-03 23:05 | 26.06979 | -80.14749 | 16 ft | 1 kts | 165° |
| 2026-05-03 23:06 | 26.06971 | -80.14738 | 16 ft | 5 kts | 95° |
| 2026-05-03 23:06 | 26.06999 | -80.14729 | 17 ft | 3 kts | 287° |
| 2026-05-03 23:06 | 26.07019 | -80.14785 | 16 ft | 11 kts | 314° |
| 2026-05-03 23:06 | 26.07087 | -80.14854 | 16 ft | 15 kts | 333° |
| 2026-05-03 23:07 | 26.07204 | -80.14853 | 16 ft | 19 kts | 1° |
| 2026-05-03 23:07 | 26.07310 | -80.14853 | 16 ft | 4 kts | 360° |
| 2026-05-03 23:07 | 26.07372 | -80.14877 | 16 ft | 12 kts | 305° |
| 2026-05-03 23:07 | 26.07413 | -80.14964 | 16 ft | 15 kts | 321° |
| 2026-05-03 23:08 | 26.07503 | -80.15055 | 17 ft | 19 kts | 311° |
| 2026-05-03 23:08 | 26.07489 | -80.15172 | 16 ft | 19 kts | 266° |
| 2026-05-03 23:08 | 26.07490 | -80.15334 | 16 ft | 21 kts | 269° |
| 2026-05-03 23:08 | 26.07491 | -80.15513 | 16 ft | 25 kts | 271° |
| 2026-05-03 23:09 | 26.07494 | -80.15722 | 16 ft | 29 kts | 271° |
| 2026-05-03 23:10 | 26.07448 | -80.15705 | 16 ft | 17 kts | 91° |
| 2026-05-03 23:10 | 26.07484 | -80.15644 | 16 ft | 10 kts | 320° |
| 2026-05-03 23:10 | 26.07490 | -80.15670 | 16 ft | 0 kts | 269° |
| 2026-05-03 23:11 | 26.07490 | -80.15671 | 16 ft | 1 kts | 269° |
| 2026-05-03 23:11 | 26.07489 | -80.15695 | 16 ft | 5 kts | 269° |
| 2026-05-03 23:12 | 26.07492 | -80.15752 | 16 ft | 7 kts | 270° |
| 2026-05-03 23:12 | 26.07492 | -80.15779 | 16 ft | 4 kts | 270° |
| 2026-05-03 23:12 | 26.07492 | -80.15781 | 16 ft | 0 kts | 270° |
| 2026-05-03 23:13 | 26.07492 | -80.15783 | 16 ft | 1 kts | 270° |
| 2026-05-03 23:13 | 26.07492 | -80.15788 | 16 ft | 0 kts | 271° |
| 2026-05-03 23:14 | 26.07492 | -80.15798 | 16 ft | 3 kts | 271° |
| 2026-05-03 23:14 | 26.07493 | -80.15840 | 16 ft | 8 kts | 271° |
| 2026-05-03 23:14 | 26.07493 | -80.15858 | 16 ft | 0 kts | 271° |
| 2026-05-03 23:15 | 26.07494 | -80.15884 | 16 ft | 8 kts | 271° |
| 2026-05-03 23:16 | 26.07494 | -80.15936 | 16 ft | 0 kts | 270° |
| 2026-05-03 23:17 | 26.07494 | -80.15974 | 16 ft | 11 kts | 270° |
| 2026-05-03 23:17 | 26.07494 | -80.16023 | 16 ft | 0 kts | 270° |
| 2026-05-03 23:35 | 26.07494 | -80.16027 | 16 ft | 2 kts | 270° |
| 2026-05-03 23:36 | 26.07494 | -80.16052 | 16 ft | 5 kts | 270° |
| 2026-05-03 23:36 | 26.07495 | -80.16076 | 16 ft | 0 kts | 270° |
| 2026-05-03 23:38 | 26.07495 | -80.16084 | 16 ft | 2 kts | 270° |
| 2026-05-03 23:38 | 26.07495 | -80.16114 | 16 ft | 3 kts | 270° |
| 2026-05-03 23:38 | 26.07495 | -80.16127 | 16 ft | 0 kts | 270° |
| 2026-05-03 23:39 | 26.07495 | -80.16129 | 16 ft | 1 kts | 270° |
| 2026-05-03 23:39 | 26.07495 | -80.16131 | 16 ft | 0 kts | 270° |
| 2026-05-03 23:41 | 26.07495 | -80.16134 | 16 ft | 0 kts | 270° |
| 2026-05-03 23:43 | 26.07495 | -80.16137 | 16 ft | 1 kts | 271° |
| 2026-05-03 23:43 | 26.07496 | -80.16161 | 16 ft | 5 kts | 271° |
| 2026-05-03 23:43 | 26.07496 | -80.16201 | 16 ft | 3 kts | 268° |
| 2026-05-03 23:44 | 26.07496 | -80.16207 | 16 ft | 0 kts | 268° |
| 2026-05-03 23:48 | 26.07495 | -80.16219 | 16 ft | 3 kts | 269° |
| 2026-05-03 23:49 | 26.07495 | -80.16241 | 16 ft | 5 kts | 270° |
| 2026-05-03 23:49 | 26.07495 | -80.16294 | 16 ft | 5 kts | 270° |
| 2026-05-03 23:49 | 26.07495 | -80.16296 | 16 ft | 0 kts | 270° |
| 2026-05-03 23:50 | 26.07495 | -80.16300 | 16 ft | 0 kts | 271° |
| 2026-05-03 23:52 | 26.07495 | -80.16301 | 16 ft | 1 kts | 271° |
| 2026-05-03 23:52 | 26.07496 | -80.16319 | 16 ft | 2 kts | 271° |
| 2026-05-03 23:53 | 26.07496 | -80.16326 | 16 ft | 2 kts | 271° |
| 2026-05-03 23:54 | 26.07496 | -80.16355 | 16 ft | 5 kts | 270° |
| 2026-05-03 23:54 | 26.07496 | -80.16376 | 16 ft | 0 kts | 270° |
| 2026-05-03 23:55 | 26.07496 | -80.16378 | 16 ft | 2 kts | 270° |
| 2026-05-03 23:55 | 26.07496 | -80.16387 | 16 ft | 0 kts | 271° |
| 2026-05-03 23:56 | 26.07496 | -80.16394 | 16 ft | 2 kts | 270° |
| 2026-05-03 23:57 | 26.07497 | -80.16425 | 16 ft | 6 kts | 270° |
| 2026-05-03 23:57 | 26.07497 | -80.16453 | 16 ft | 0 kts | 270° |
| 2026-05-03 23:58 | 26.07497 | -80.16454 | 16 ft | 0 kts | 270° |
| 2026-05-03 23:58 | 26.07497 | -80.16465 | 16 ft | 1 kts | 270° |
| 2026-05-03 23:58 | 26.07497 | -80.16472 | 16 ft | 2 kts | 270° |
| 2026-05-03 23:58 | 26.07497 | -80.16474 | 16 ft | 0 kts | 271° |
| 2026-05-03 23:59 | 26.07497 | -80.16479 | 16 ft | 2 kts | 271° |
| 2026-05-03 23:59 | 26.07497 | -80.16502 | 16 ft | 0 kts | 271° |
| 2026-05-04 00:01 | 26.07498 | -80.16513 | 16 ft | 0 kts | 271° |
| 2026-05-04 00:01 | 26.07498 | -80.16514 | 16 ft | 1 kts | 271° |
| 2026-05-04 00:02 | 26.07498 | -80.16518 | 16 ft | 2 kts | 270° |
| 2026-05-04 00:02 | 26.07498 | -80.16527 | 16 ft | 0 kts | 270° |
| 2026-05-04 00:03 | 26.07498 | -80.16537 | 16 ft | 3 kts | 270° |
| 2026-05-04 00:03 | 26.07498 | -80.16580 | 16 ft | 6 kts | 271° |
| 2026-05-04 00:03 | 26.07498 | -80.16584 | 16 ft | 0 kts | 271° |
| 2026-05-04 00:03 | 26.07498 | -80.16592 | 16 ft | 3 kts | 271° |
| 2026-05-04 00:04 | 26.07501 | -80.16606 | 16 ft | 0 kts | 285° |
| 2026-05-04 00:05 | 26.07505 | -80.16618 | 16 ft | 4 kts | 294° |
| 2026-05-04 00:05 | 26.07540 | -80.16640 | 16 ft | 8 kts | 351° |
| 2026-05-04 00:06 | 26.07586 | -80.16642 | 17 ft | 0 kts | 359° |
| 2026-05-04 00:07 | 26.07597 | -80.16642 | 17 ft | 3 kts | 359° |
| 2026-05-04 00:07 | 26.07658 | -80.16641 | 18 ft | 14 kts | 10° |
| 2026-05-04 00:07 | 26.07694 | -80.16563 | 18 ft | 2 kts | 89° |
| 2026-05-04 00:09 | 26.07695 | -80.16363 | 21 ft | 68 kts | 90° |
| 2026-05-04 00:09 | 26.07692 | -80.15537 | 18 ft | 141 kts | 90° |
| 2026-05-04 00:09 | 26.07668 | -80.14352 | 507 ft | 160 kts | 90° |
| 2026-05-04 00:10 | 26.07678 | -80.13111 | 1363 ft | 162 kts | 87° |
| 2026-05-04 00:10 | 26.07706 | -80.11790 | 1965 ft | 181 kts | 89° |
| 2026-05-04 00:10 | 26.07732 | -80.10301 | 2424 ft | 205 kts | 89° |
| 2026-05-04 00:10 | 26.07763 | -80.08630 | 2900 ft | 225 kts | 89° |
| 2026-05-04 00:11 | 26.07790 | -80.06830 | 3509 ft | 244 kts | 89° |
| 2026-05-04 00:11 | 26.07812 | -80.04853 | 3936 ft | 268 kts | 89° |
| 2026-05-04 00:11 | 26.07831 | -80.02758 | 4016 ft | 273 kts | 90° |
| 2026-05-04 00:11 | 26.07848 | -80.00641 | 4026 ft | 273 kts | 89° |
| 2026-05-04 00:12 | 26.07835 | -79.98520 | 4142 ft | 277 kts | 97° |
| 2026-05-04 00:12 | 26.07492 | -79.96413 | 5274 ft | 278 kts | 96° |
| 2026-05-04 00:12 | 26.07454 | -79.94239 | 6441 ft | 284 kts | 89° |
| 2026-05-04 00:12 | 26.07511 | -79.92017 | 7513 ft | 291 kts | 88° |
| 2026-05-04 00:13 | 26.07580 | -79.89743 | 8538 ft | 297 kts | 88° |
| 2026-05-04 00:13 | 26.07655 | -79.87418 | 9483 ft | 305 kts | 88° |
| 2026-05-04 00:13 | 26.07735 | -79.85031 | 10318 ft | 317 kts | 88° |
| 2026-05-04 00:13 | 26.07828 | -79.82525 | 10742 ft | 341 kts | 88° |
| 2026-05-04 00:14 | 26.07936 | -79.79792 | 11096 ft | 365 kts | 88° |
| 2026-05-04 00:14 | 26.08054 | -79.76895 | 11547 ft | 383 kts | 88° |
| 2026-05-04 00:14 | 26.08180 | -79.73906 | 12277 ft | 391 kts | 88° |
| 2026-05-04 00:14 | 26.08125 | -79.70868 | 12821 ft | 395 kts | 101° |
| 2026-05-04 00:15 | 26.07257 | -79.67984 | 13444 ft | 395 kts | 121° |
| 2026-05-04 00:15 | 26.05655 | -79.65541 | 14247 ft | 392 kts | 139° |
| 2026-05-04 00:15 | 26.03481 | -79.63738 | 15000 ft | 388 kts | 157° |
| 2026-05-04 00:15 | 26.00951 | -79.62774 | 15719 ft | 384 kts | 175° |
| 2026-05-04 00:16 | 25.98341 | -79.62712 | 16433 ft | 379 kts | 192° |
| 2026-05-04 00:16 | 25.95829 | -79.63512 | 17156 ft | 375 kts | 208° |
| 2026-05-04 00:16 | 25.93656 | -79.65077 | 17877 ft | 373 kts | 224° |
| 2026-05-04 00:16 | 25.91797 | -79.67089 | 18610 ft | 375 kts | 225° |
| 2026-05-04 00:17 | 25.89790 | -79.68953 | 19362 ft | 379 kts | 220° |
| 2026-05-04 00:17 | 25.87640 | -79.70693 | 20084 ft | 383 kts | 218° |
| 2026-05-04 00:17 | 25.85435 | -79.72378 | 20779 ft | 386 kts | 217° |
| 2026-05-04 00:17 | 25.83212 | -79.74077 | 21418 ft | 389 kts | 218° |
| 2026-05-04 00:18 | 25.80993 | -79.75819 | 22037 ft | 391 kts | 219° |
| 2026-05-04 00:18 | 25.78817 | -79.77581 | 22621 ft | 394 kts | 219° |
| 2026-05-04 00:18 | 25.76617 | -79.79402 | 23185 ft | 397 kts | 220° |
| 2026-05-04 00:18 | 25.74407 | -79.81255 | 23714 ft | 399 kts | 220° |
| 2026-05-04 00:19 | 25.72187 | -79.83127 | 24235 ft | 402 kts | 220° |
| 2026-05-04 00:19 | 25.69955 | -79.85011 | 24737 ft | 404 kts | 220° |
| 2026-05-04 00:19 | 25.67709 | -79.86898 | 25243 ft | 406 kts | 220° |
| 2026-05-04 00:19 | 25.65442 | -79.88787 | 25733 ft | 409 kts | 220° |
| 2026-05-04 00:20 | 25.63193 | -79.90654 | 26221 ft | 411 kts | 220° |
| 2026-05-04 00:20 | 25.60901 | -79.92554 | 26712 ft | 413 kts | 220° |
| 2026-05-04 00:20 | 25.58591 | -79.94468 | 27210 ft | 414 kts | 220° |
| 2026-05-04 00:20 | 25.56284 | -79.96383 | 27681 ft | 416 kts | 220° |
| 2026-05-04 00:21 | 25.53961 | -79.98312 | 28143 ft | 418 kts | 220° |
| 2026-05-04 00:21 | 25.51629 | -80.00249 | 28609 ft | 420 kts | 220° |
| 2026-05-04 00:21 | 25.49288 | -80.02192 | 29075 ft | 422 kts | 220° |
| 2026-05-04 00:21 | 25.46933 | -80.04145 | 29521 ft | 424 kts | 220° |
| 2026-05-04 00:22 | 25.44570 | -80.06101 | 29994 ft | 425 kts | 220° |
| 2026-05-04 00:22 | 25.42208 | -80.08052 | 30634 ft | 422 kts | 220° |
| 2026-05-04 00:22 | 25.39898 | -80.09963 | 31244 ft | 420 kts | 220° |
| 2026-05-04 00:22 | 25.37558 | -80.11901 | 31809 ft | 420 kts | 220° |
| 2026-05-04 00:23 | 25.35223 | -80.13832 | 32349 ft | 419 kts | 220° |
| 2026-05-04 00:23 | 25.32891 | -80.15760 | 32842 ft | 419 kts | 220° |
| 2026-05-04 00:23 | 25.30554 | -80.17691 | 32977 ft | 419 kts | 220° |
| 2026-05-04 00:23 | 25.28231 | -80.19609 | 33018 ft | 416 kts | 220° |
| 2026-05-04 00:24 | 25.23608 | -80.23423 | 33018 ft | 414 kts | 220° |
| 2026-05-04 00:24 | 25.19020 | -80.27205 | 33019 ft | 415 kts | 220° |
| 2026-05-04 00:25 | 25.14393 | -80.31016 | 33017 ft | 415 kts | 220° |
| 2026-05-04 00:25 | 25.09764 | -80.34829 | 33018 ft | 415 kts | 220° |
| 2026-05-04 00:26 | 25.05129 | -80.38632 | 33021 ft | 415 kts | 220° |
| 2026-05-04 00:26 | 25.00522 | -80.42411 | 33021 ft | 416 kts | 220° |
| 2026-05-04 00:27 | 24.95886 | -80.46226 | 33021 ft | 416 kts | 220° |
| 2026-05-04 00:27 | 24.91246 | -80.50030 | 33025 ft | 416 kts | 220° |
| 2026-05-04 00:28 | 24.86597 | -80.53833 | 33028 ft | 417 kts | 220° |
| 2026-05-04 00:28 | 24.82169 | -80.57837 | 33027 ft | 412 kts | 230° |
| 2026-05-04 00:29 | 24.78891 | -80.62964 | 33024 ft | 410 kts | 239° |
| 2026-05-04 00:29 | 24.75825 | -80.68253 | 33021 ft | 410 kts | 238° |
| 2026-05-04 00:30 | 24.72744 | -80.73538 | 33024 ft | 410 kts | 238° |
| 2026-05-04 00:30 | 24.69688 | -80.78791 | 33025 ft | 411 kts | 238° |
| 2026-05-04 00:31 | 24.66608 | -80.84082 | 33025 ft | 411 kts | 239° |
| 2026-05-04 00:31 | 24.63528 | -80.89369 | 33027 ft | 411 kts | 239° |
| 2026-05-04 00:32 | 24.60449 | -80.94657 | 33028 ft | 411 kts | 238° |
| 2026-05-04 00:32 | 24.56573 | -80.99205 | 33029 ft | 419 kts | 218° |
| 2026-05-04 00:33 | 24.53973 | -81.00691 | 33023 ft | 426 kts | 206° |
| 2026-05-04 00:33 | 24.48008 | -81.01623 | 33021 ft | 443 kts | 186° |
| 2026-05-04 00:34 | 24.41830 | -81.01571 | 33017 ft | 444 kts | 186° |
| 2026-05-04 00:34 | 24.35635 | -81.01495 | 33016 ft | 446 kts | 186° |
| 2026-05-04 00:35 | 24.29473 | -81.01428 | 33021 ft | 446 kts | 186° |
| 2026-05-04 00:35 | 24.23267 | -81.01377 | 33021 ft | 446 kts | 186° |
| 2026-05-04 00:36 | 24.17062 | -81.01338 | 33024 ft | 446 kts | 186° |
| 2026-05-04 00:36 | 24.10857 | -81.01293 | 33023 ft | 446 kts | 186° |
| 2026-05-04 00:37 | 24.04689 | -81.01239 | 33026 ft | 446 kts | 186° |
| 2026-05-04 00:37 | 23.98476 | -81.01173 | 33031 ft | 447 kts | 185° |
| 2026-05-04 00:38 | 23.92240 | -81.00950 | 33017 ft | 450 kts | 184° |
| 2026-05-04 00:38 | 23.85972 | -81.00627 | 33012 ft | 451 kts | 184° |
| 2026-05-04 00:39 | 23.79735 | -81.00327 | 33015 ft | 452 kts | 184° |
| 2026-05-04 00:39 | 23.73453 | -81.00060 | 33021 ft | 452 kts | 184° |
| 2026-05-04 00:40 | 23.67162 | -80.99811 | 33025 ft | 452 kts | 184° |
| 2026-05-04 00:40 | 23.60870 | -80.99546 | 33032 ft | 453 kts | 184° |
| 2026-05-04 00:41 | 23.54574 | -80.99282 | 33032 ft | 453 kts | 184° |
| 2026-05-04 00:41 | 23.48314 | -80.99023 | 33032 ft | 454 kts | 184° |
| 2026-05-04 00:42 | 23.42002 | -80.98761 | 33036 ft | 454 kts | 184° |
| 2026-05-04 00:42 | 23.35687 | -80.98488 | 33044 ft | 454 kts | 184° |
| 2026-05-04 00:43 | 23.29365 | -80.98214 | 33044 ft | 455 kts | 184° |
| 2026-05-04 00:43 | 23.23076 | -80.97950 | 33048 ft | 455 kts | 184° |
| 2026-05-04 00:44 | 23.16747 | -80.97693 | 33049 ft | 455 kts | 184° |
| 2026-05-04 00:44 | 23.10418 | -80.97436 | 33049 ft | 455 kts | 184° |
| 2026-05-04 00:45 | 23.04091 | -80.97263 | 33048 ft | 451 kts | 189° |
| 2026-05-04 00:45 | 22.98092 | -80.98632 | 33048 ft | 440 kts | 205° |
| 2026-05-04 00:46 | 22.92355 | -81.00950 | 33047 ft | 440 kts | 205° |
| 2026-05-04 00:46 | 22.86598 | -81.03247 | 33048 ft | 441 kts | 205° |
| 2026-05-04 00:47 | 22.80832 | -81.05543 | 33049 ft | 442 kts | 205° |
| 2026-05-04 00:47 | 22.75098 | -81.07836 | 33056 ft | 444 kts | 205° |
| 2026-05-04 00:48 | 22.69303 | -81.10157 | 33053 ft | 444 kts | 205° |
| 2026-05-04 00:48 | 22.63495 | -81.12485 | 33057 ft | 445 kts | 205° |
| 2026-05-04 00:49 | 22.57684 | -81.14791 | 33056 ft | 445 kts | 205° |
| 2026-05-04 00:49 | 22.51879 | -81.17099 | 33053 ft | 444 kts | 205° |
| 2026-05-04 00:50 | 22.46113 | -81.19402 | 33048 ft | 445 kts | 205° |
| 2026-05-04 00:50 | 22.40310 | -81.21719 | 33036 ft | 445 kts | 205° |
| 2026-05-04 00:51 | 22.34508 | -81.24029 | 33031 ft | 445 kts | 205° |
| 2026-05-04 00:51 | 22.28694 | -81.26337 | 33037 ft | 445 kts | 205° |
| 2026-05-04 00:52 | 22.22916 | -81.28632 | 33030 ft | 445 kts | 205° |
| 2026-05-04 00:52 | 22.17104 | -81.30936 | 33035 ft | 446 kts | 205° |
| 2026-05-04 00:53 | 22.11272 | -81.33236 | 33034 ft | 446 kts | 205° |
| 2026-05-04 00:53 | 22.05484 | -81.35523 | 33038 ft | 446 kts | 205° |
| 2026-05-04 00:54 | 21.99664 | -81.37825 | 33037 ft | 446 kts | 205° |
| 2026-05-04 00:54 | 21.93829 | -81.40135 | 33029 ft | 447 kts | 204° |
| 2026-05-04 00:55 | 21.87980 | -81.42440 | 33023 ft | 448 kts | 204° |
| 2026-05-04 00:55 | 21.82114 | -81.44750 | 33023 ft | 449 kts | 204° |
| 2026-05-04 00:56 | 21.76289 | -81.47049 | 33027 ft | 449 kts | 204° |
| 2026-05-04 00:56 | 21.70421 | -81.49361 | 33034 ft | 449 kts | 204° |
| 2026-05-04 00:57 | 21.64552 | -81.51676 | 33035 ft | 449 kts | 204° |
| 2026-05-04 00:57 | 21.58377 | -81.53027 | 33033 ft | 461 kts | 186° |
| 2026-05-04 00:58 | 21.51925 | -81.52662 | 33033 ft | 465 kts | 181° |
| 2026-05-04 00:58 | 21.45511 | -81.52201 | 33031 ft | 465 kts | 181° |
| 2026-05-04 00:59 | 21.39048 | -81.51754 | 33030 ft | 465 kts | 181° |
| 2026-05-04 00:59 | 21.32584 | -81.51311 | 33023 ft | 465 kts | 181° |
| 2026-05-04 01:00 | 21.26117 | -81.50858 | 33021 ft | 466 kts | 181° |
| 2026-05-04 01:00 | 21.19685 | -81.50402 | 33020 ft | 467 kts | 180° |
| 2026-05-04 01:01 | 21.13203 | -81.49947 | 33018 ft | 467 kts | 181° |
| 2026-05-04 01:01 | 21.06713 | -81.49498 | 33019 ft | 468 kts | 180° |
| 2026-05-04 01:02 | 21.00224 | -81.49047 | 33019 ft | 468 kts | 180° |
| 2026-05-04 01:02 | 20.93764 | -81.48590 | 33020 ft | 468 kts | 180° |
| 2026-05-04 01:03 | 20.87259 | -81.48139 | 33016 ft | 468 kts | 180° |
| 2026-05-04 01:03 | 20.80747 | -81.47690 | 33018 ft | 469 kts | 180° |
| 2026-05-04 01:04 | 20.74233 | -81.47237 | 33017 ft | 469 kts | 180° |
| 2026-05-04 01:04 | 20.67757 | -81.46785 | 33016 ft | 470 kts | 180° |
| 2026-05-04 01:05 | 20.61230 | -81.46328 | 33019 ft | 470 kts | 180° |
| 2026-05-04 01:05 | 20.54694 | -81.45878 | 33018 ft | 471 kts | 180° |
| 2026-05-04 01:06 | 20.48162 | -81.45424 | 33015 ft | 470 kts | 180° |
| 2026-05-04 01:06 | 20.41669 | -81.44970 | 33012 ft | 471 kts | 180° |
| 2026-05-04 01:07 | 20.35125 | -81.44508 | 33013 ft | 471 kts | 180° |
| 2026-05-04 01:07 | 20.28578 | -81.44058 | 33013 ft | 471 kts | 180° |
| 2026-05-04 01:08 | 20.22034 | -81.43607 | 33012 ft | 471 kts | 180° |
| 2026-05-04 01:08 | 20.15529 | -81.43161 | 33012 ft | 471 kts | 181° |
| 2026-05-04 01:09 | 20.09066 | -81.43688 | 33009 ft | 465 kts | 190° |
| 2026-05-04 01:09 | 20.02633 | -81.44490 | 32987 ft | 466 kts | 190° |
| 2026-05-04 01:10 | 19.96215 | -81.45303 | 31970 ft | 457 kts | 190° |
| 2026-05-04 01:10 | 19.93082 | -81.45701 | 29993 ft | 463 kts | 189° |
| 2026-05-04 01:10 | 19.89867 | -81.46115 | 27921 ft | 467 kts | 189° |
| 2026-05-04 01:10 | 19.86641 | -81.46527 | 25833 ft | 467 kts | 188° |
| 2026-05-04 01:11 | 19.83417 | -81.46934 | 23750 ft | 465 kts | 188° |
| 2026-05-04 01:11 | 19.80227 | -81.47336 | 21683 ft | 459 kts | 187° |
| 2026-05-04 01:11 | 19.77074 | -81.47734 | 19654 ft | 453 kts | 187° |
| 2026-05-04 01:11 | 19.73978 | -81.48126 | 17727 ft | 444 kts | 187° |
| 2026-05-04 01:12 | 19.70947 | -81.48510 | 15841 ft | 434 kts | 187° |
| 2026-05-04 01:12 | 19.67991 | -81.48881 | 14496 ft | 418 kts | 187° |
| 2026-05-04 01:12 | 19.65208 | -81.49228 | 13699 ft | 390 kts | 187° |
| 2026-05-04 01:12 | 19.62606 | -81.49554 | 12829 ft | 379 kts | 187° |
| 2026-05-04 01:13 | 19.59987 | -81.49882 | 11967 ft | 379 kts | 187° |
| 2026-05-04 01:13 | 19.57381 | -81.50208 | 11133 ft | 373 kts | 187° |
| 2026-05-04 01:13 | 19.54892 | -81.50519 | 10638 ft | 345 kts | 187° |
| 2026-05-04 01:13 | 19.52613 | -81.50943 | 10438 ft | 324 kts | 194° |
| 2026-05-04 01:14 | 19.50490 | -81.51491 | 10074 ft | 306 kts | 193° |
| 2026-05-04 01:14 | 19.48440 | -81.52016 | 9360 ft | 301 kts | 193° |
| 2026-05-04 01:14 | 19.46410 | -81.52537 | 8585 ft | 300 kts | 193° |
| 2026-05-04 01:14 | 19.44389 | -81.53058 | 7843 ft | 297 kts | 192° |
| 2026-05-04 01:15 | 19.42421 | -81.53567 | 7161 ft | 293 kts | 192° |
| 2026-05-04 01:15 | 19.40453 | -81.54080 | 6391 ft | 290 kts | 192° |
| 2026-05-04 01:15 | 19.38508 | -81.54586 | 5815 ft | 281 kts | 192° |
| 2026-05-04 01:15 | 19.36680 | -81.55064 | 5620 ft | 260 kts | 192° |
| 2026-05-04 01:16 | 19.34978 | -81.55313 | 5498 ft | 236 kts | 178° |
| 2026-05-04 01:16 | 19.33400 | -81.55126 | 5166 ft | 224 kts | 164° |
| 2026-05-04 01:16 | 19.31909 | -81.54723 | 4813 ft | 221 kts | 164° |
| 2026-05-04 01:16 | 19.30415 | -81.54322 | 4465 ft | 222 kts | 164° |
| 2026-05-04 01:17 | 19.28934 | -81.53928 | 4212 ft | 213 kts | 164° |
| 2026-05-04 01:17 | 19.27554 | -81.53556 | 3842 ft | 203 kts | 162° |
| 2026-05-04 01:17 | 19.26388 | -81.52826 | 3527 ft | 192 kts | 133° |
| 2026-05-04 01:17 | 19.25778 | -81.51628 | 3230 ft | 183 kts | 103° |
| 2026-05-04 01:18 | 19.25810 | -81.50312 | 2944 ft | 178 kts | 78° |
| 2026-05-04 01:18 | 19.26114 | -81.49060 | 2670 ft | 172 kts | 78° |
| 2026-05-04 01:18 | 19.26401 | -81.47877 | 2405 ft | 161 kts | 77° |
| 2026-05-04 01:18 | 19.26664 | -81.46786 | 2170 ft | 147 kts | 78° |
| 2026-05-04 01:19 | 19.26903 | -81.45779 | 1947 ft | 136 kts | 78° |
| 2026-05-04 01:19 | 19.27127 | -81.44835 | 1745 ft | 133 kts | 78° |
| 2026-05-04 01:19 | 19.27349 | -81.43902 | 1560 ft | 127 kts | 78° |
| 2026-05-04 01:19 | 19.27577 | -81.43005 | 1445 ft | 125 kts | 76° |
| 2026-05-04 01:20 | 19.27822 | -81.42123 | 1213 ft | 124 kts | 76° |
| 2026-05-04 01:20 | 19.28055 | -81.41251 | 1001 ft | 122 kts | 76° |
| 2026-05-04 01:20 | 19.28269 | -81.40381 | 954 ft | 124 kts | 78° |
| 2026-05-04 01:20 | 19.28441 | -81.39490 | 734 ft | 123 kts | 78° |
| 2026-05-04 01:21 | 19.28645 | -81.38613 | 460 ft | 122 kts | 78° |
| 2026-05-04 01:21 | 19.28845 | -81.37760 | 254 ft | 122 kts | 76° |
| 2026-05-04 01:21 | 19.29027 | -81.36887 | 64 ft | 123 kts | 79° |
| 2026-05-04 01:21 | 19.29194 | -81.36079 | 16 ft | 92 kts | 75° |
| 2026-05-04 01:22 | 19.29317 | -81.35599 | 16 ft | 50 kts | 80° |
| 2026-05-04 01:22 | 19.29399 | -81.35285 | 16 ft | 33 kts | 73° |
| 2026-05-04 01:22 | 19.29406 | -81.35179 | 17 ft | 12 kts | 123° |
| 2026-05-04 01:22 | 19.29400 | -81.35150 | 19 ft | 6 kts | 47° |
| 2026-05-04 01:23 | 19.29460 | -81.35015 | 18 ft | 24 kts | 86° |
| 2026-05-04 01:23 | 19.29487 | -81.34940 | 19 ft | 3 kts | 5° |
| 2026-05-04 01:23 | 19.29497 | -81.34896 | 19 ft | 13 kts | 68° |
| 2026-05-04 01:23 | 19.29548 | -81.34901 | 20 ft | 16 kts | 314° |
| 2026-05-04 01:24 | 19.29539 | -81.35040 | 17 ft | 22 kts | 255° |
| 2026-05-04 01:24 | 19.29497 | -81.35217 | 16 ft | 27 kts | 257° |
| 2026-05-04 01:24 | 19.29452 | -81.35413 | 16 ft | 26 kts | 256° |
| 2026-05-04 01:24 | 19.29428 | -81.35569 | 16 ft | 13 kts | 301° |
| 2026-05-04 01:25 | 19.29462 | -81.35648 | 16 ft | 13 kts | 258° |
| 2026-05-04 01:25 | 19.29444 | -81.35752 | 16 ft | 13 kts | 257° |
| 2026-05-04 01:25 | 19.29430 | -81.35812 | 16 ft | 3 kts | 255° |
| 2026-05-04 01:25 | 19.29441 | -81.35838 | 16 ft | 6 kts | 331° |
| 2026-05-04 01:26 | 19.29467 | -81.35845 | 16 ft | 4 kts | 346° |
| 2026-05-04 01:26 | 19.29488 | -81.35851 | 16 ft | 0 kts | 346° |
| 2026-05-04 01:27 | 19.29472 | -81.35882 | 16 ft | 0 kts | 347° |